Time;durP1;ratioP1;P1;durP2;ratioP2;P2;SDS_P1;SDS_P2;PMS_P1;PMS_P2;Temp;Humidity;BMP_temperature;BMP_pressure;BME280_temperature;BME280_humidity;BME280_pressure;Samples;Min_cycle;Max_cycle;Signal;HPM_P1;HPM_P2
2021/05/01 00:02:21;;;;;;;;;;;12.30;99.90;;;11.88;72.77;100638.84;5054379;28;19974;-61
2021/05/01 00:04:48;;;;;;;;;;;12.30;99.90;;;11.84;72.79;100630.53;5055068;28;20026;-61
2021/05/01 00:07:15;;;;;;;;;;;12.20;99.90;;;11.82;72.81;100638.16;5054982;28;19972;-64
2021/05/01 00:09:42;;;;;;;;;;;12.20;99.90;;;11.79;72.72;100644.19;5055185;28;20027;-63
2021/05/01 00:12:10;;;;;;;;;;;12.20;99.90;;;11.79;72.35;100640.66;5054318;28;19983;-63
2021/05/01 00:14:39;;;;;;;;;;;12.20;99.90;;;11.78;71.99;100645.28;5054902;28;20371;-63
2021/05/01 00:17:07;;;;;;;;;;;12.20;99.90;;;11.77;72.00;100640.94;5055020;28;19929;-63
2021/05/01 00:19:34;;;;;;;;;;;12.20;99.90;;;11.76;72.10;100639.38;5055025;28;19954;-63
2021/05/01 00:22:01;;;;;;;;;;;12.20;99.90;;;11.67;72.71;100640.34;5053941;28;20032;-63
2021/05/01 00:24:29;;;;;;;;;;;12.10;99.90;;;11.62;72.63;100643.94;5054813;28;20075;-63
2021/05/01 00:26:56;;;;;;;;;;;12.10;99.90;;;11.58;72.71;100634.78;5054893;28;19924;-63
2021/05/01 00:29:23;;;;;;;;;;;12.00;99.90;;;11.46;73.49;100635.28;5054923;28;19929;-63
2021/05/01 00:31:50;;;;;;;;;;;11.90;99.90;;;11.35;73.79;100635.78;5053759;28;20356;-63
2021/05/01 00:34:18;;;;;;;;;;;11.90;99.90;;;11.22;74.44;100636.56;5054482;28;19925;-63
2021/05/01 00:36:46;;;;;;;;;;;11.80;99.90;;;11.13;74.96;100641.88;5054650;28;19931;-64
2021/05/01 00:39:13;;;;;;;;;;;11.70;99.90;;;11.10;75.33;100644.34;5054638;28;19975;-63
2021/05/01 00:41:40;;;;;;;;;;;11.60;99.90;;;11.02;75.65;100639.63;5053789;28;19978;-63
2021/05/01 00:44:07;;;;;;;;;;;11.60;99.90;;;10.92;76.13;100638.72;5054198;28;19925;-63
2021/05/01 00:46:35;;;;;;;;;;;11.40;99.90;;;10.82;76.71;100638.09;5054552;28;19964;-63
2021/05/01 00:49:02;;;;;;;;;;;11.40;99.90;;;10.72;77.20;100633.63;5054459;28;20035;-63
2021/05/01 00:51:30;;;;;;;;;;;11.30;99.90;;;10.63;77.62;100630.00;5053356;28;19978;-63
2021/05/01 00:53:58;;;;;;;;;;;;;;;10.57;78.25;100623.06;5053987;28;20283;-62
2021/05/01 00:56:25;;;;;;;;;;;11.20;99.90;;;10.53;78.43;100632.84;5054434;28;19932;-62
2021/05/01 00:58:52;;;;;;;;;;;11.10;99.90;;;10.50;78.60;100625.31;5054167;28;19929;-62
2021/05/01 01:01:20;;;;;;;;;;;11.10;99.90;;;10.49;78.95;100625.63;5053493;28;19924;-63
2021/05/01 01:03:48;;;;;;;;;;;11.00;99.90;;;10.48;79.24;100622.13;5053881;28;19925;-62
2021/05/01 01:06:16;;;;;;;;;;;11.00;99.90;;;10.52;79.38;100623.13;5054317;28;19924;-62
2021/05/01 01:08:44;;;;;;;;;;;11.10;99.90;;;10.56;79.81;100626.84;5053582;28;19932;-63
2021/05/01 01:11:12;;;;;;;;;;;11.10;99.90;;;10.61;79.30;100615.94;5053020;28;19995;-63
2021/05/01 01:13:39;;;;;;;;;;;11.10;99.90;;;10.55;79.60;100622.53;5053783;28;20017;-63
2021/05/01 01:16:06;;;;;;;;;;;11.10;99.90;;;10.52;79.64;100625.06;5054191;28;19960;-63
2021/05/01 01:18:34;;;;;;;;;;;11.00;99.90;;;10.46;79.74;100624.31;5053805;28;20362;-63
2021/05/01 01:21:03;;;;;;;;;;;11.00;99.90;;;10.38;80.15;100628.47;5052930;28;20028;-63
2021/05/01 01:23:31;;;;;;;;;;;10.90;99.90;;;10.28;80.37;100630.50;5053553;28;20399;-63
2021/05/01 01:25:58;;;;;;;;;;;10.90;99.90;;;10.24;80.63;100621.41;5053814;28;20029;-63
2021/05/01 01:28:26;;;;;;;;;;;10.80;99.90;;;10.26;80.88;100627.31;5053720;28;19960;-63
2021/05/01 01:30:54;;;;;;;;;;;10.80;99.90;;;10.40;80.28;100620.06;5052863;28;19925;-63
2021/05/01 01:33:21;;;;;;;;;;;10.90;99.90;;;10.43;80.01;100630.28;5053444;28;19925;-63
2021/05/01 01:35:48;;;;;;;;;;;10.90;99.90;;;10.36;80.30;100629.88;5053440;28;20030;-62
2021/05/01 01:38:15;;;;;;;;;;;10.90;99.90;;;10.29;80.32;100626.72;5053464;28;19928;-63
2021/05/01 01:40:43;;;;;;;;;;;10.90;99.90;;;10.22;80.55;100626.28;5052962;28;19924;-63
2021/05/01 01:43:10;;;;;;;;;;;10.80;99.90;;;10.19;80.53;100624.97;5052885;28;20014;-62
2021/05/01 01:45:38;;;;;;;;;;;10.80;99.90;;;10.19;80.43;100621.44;5053451;28;20415;-63
2021/05/01 01:48:05;;;;;;;;;;;10.70;99.90;;;10.15;80.41;100618.53;5053389;28;19964;-63
2021/05/01 01:50:32;;;;;;;;;;;10.70;99.90;;;10.07;80.64;100612.94;5053007;28;19928;-62
2021/05/01 01:52:59;;;;;;;;;;;10.60;99.90;;;10.04;80.87;100613.53;5052355;28;20351;-62
2021/05/01 01:55:27;;;;;;;;;;;10.60;99.90;;;10.06;81.16;100616.75;5053147;28;19924;-63
2021/05/01 01:57:55;;;;;;;;;;;10.60;99.90;;;10.17;80.29;100615.53;5053039;28;19925;-63
2021/05/01 02:00:24;;;;;;;;;;;10.70;99.90;;;10.24;79.98;100622.19;5053197;28;19995;-63
2021/05/01 02:02:51;;;;;;;;;;;10.70;99.90;;;10.33;79.62;100619.66;5052215;28;19967;-63
2021/05/01 02:05:19;;;;;;;;;;;10.80;99.90;;;10.38;79.12;100614.16;5052935;28;19932;-63
2021/05/01 02:07:46;;;;;;;;;;;10.90;99.90;;;10.39;78.76;100618.47;5052715;28;19935;-62
2021/05/01 02:10:14;;;;;;;;;;;10.90;99.90;;;10.38;78.68;100609.56;5052760;28;19929;-62
2021/05/01 02:12:41;;;;;;;;;;;10.90;99.90;;;10.35;78.82;100612.84;5052072;28;19965;-62
2021/05/01 02:15:12;;;;;;;;;;;10.90;99.90;;;10.37;78.45;100607.13;5053008;28;20336;-63
2021/05/01 02:17:40;;;;;;;;;;;10.90;99.90;;;10.36;78.45;100606.34;5052610;28;19924;-63
2021/05/01 02:20:09;;;;;;;;;;;10.90;99.90;;;10.36;78.28;100602.84;5052342;28;19967;-63
2021/05/01 02:22:36;;;;;;;;;;;10.90;99.90;;;10.36;78.58;100602.84;5051314;28;19924;-63
2021/05/01 02:25:04;;;;;;;;;;;10.90;99.90;;;10.41;78.43;100602.75;5052586;28;20005;-63
2021/05/01 02:27:31;;;;;;;;;;;10.90;99.90;;;10.43;78.16;100603.25;5052412;28;19970;-63
2021/05/01 02:29:58;;;;;;;;;;;10.90;99.90;;;10.44;78.23;100604.88;5052465;28;19975;-63
2021/05/01 02:32:26;;;;;;;;;;;10.90;99.90;;;10.43;77.94;100599.78;5051288;28;20031;-63
2021/05/01 02:34:53;;;;;;;;;;;10.90;99.90;;;10.40;78.17;100598.44;5052546;28;20023;-63
2021/05/01 02:37:20;;;;;;;;;;;10.90;99.90;;;10.43;78.13;100599.78;5052372;28;20062;-63
2021/05/01 02:39:47;;;;;;;;;;;11.00;99.90;;;10.45;78.27;100592.16;5052264;28;19925;-63
2021/05/01 02:42:14;;;;;;;;;;;11.00;99.90;;;10.49;78.01;100591.28;5051765;28;19979;-62
2021/05/01 02:44:42;;;;;;;;;;;11.00;99.90;;;10.57;77.53;100600.63;5052396;28;19929;-63
2021/05/01 02:47:13;;;;;;;;;;;11.10;99.90;;;10.62;77.04;100590.53;5052381;28;19978;-63
2021/05/01 02:49:41;;;;;;;;;;;11.10;99.90;;;10.68;76.49;100593.94;5052695;28;19925;-63
2021/05/01 02:52:08;;;;;;;;;;;11.20;99.90;;;10.73;75.98;100591.97;5051557;28;20402;-63
2021/05/01 02:54:35;;;;;;;;;;;11.20;99.90;;;10.81;75.78;100593.19;5052291;28;20462;-63
2021/05/01 02:57:02;;;;;;;;;;;11.30;99.90;;;10.86;75.30;100601.22;5052265;28;20482;-63
2021/05/01 02:59:29;;;;;;;;;;;11.30;99.90;;;10.89;75.75;100598.72;5052329;28;19947;-63
2021/05/01 03:01:57;;;;;;;;;;;11.40;99.90;;;10.91;75.85;100599.22;5051557;28;20035;-63
2021/05/01 03:04:24;;;;;;;;;;;11.40;99.90;;;10.90;76.17;100600.34;5052266;28;20368;-63
2021/05/01 03:06:52;;;;;;;;;;;11.40;99.90;;;10.86;76.38;100603.91;5052310;28;20450;-63
2021/05/01 03:09:19;;;;;;;;;;;11.40;99.90;;;10.86;76.52;100603.91;5052305;28;20031;-63
2021/05/01 03:11:46;;;;;;;;;;;11.40;99.90;;;10.83;76.46;100599.09;5051003;28;20035;-63
2021/05/01 03:14:13;;;;;;;;;;;11.40;99.90;;;10.83;76.51;100602.63;5052157;28;19972;-63
2021/05/01 03:16:41;;;;;;;;;;;11.40;99.90;;;10.78;76.75;100600.00;5052164;28;20447;-63
2021/05/01 03:19:08;;;;;;;;;;;11.30;99.90;;;10.76;76.96;100601.41;5052405;28;20346;-62
2021/05/01 03:21:35;;;;;;;;;;;11.30;99.90;;;10.72;77.42;100605.78;5051159;28;20050;-63
2021/05/01 03:24:04;;;;;;;;;;;11.20;99.90;;;10.67;77.44;100595.06;5052027;28;19925;-63
2021/05/01 03:26:31;;;;;;;;;;;11.20;99.90;;;10.59;78.01;100601.13;5051955;28;20394;-63
2021/05/01 03:28:58;;;;;;;;;;;11.10;99.90;;;10.51;78.19;100605.31;5052167;28;20394;-63
2021/05/01 03:31:25;;;;;;;;;;;11.10;99.90;;;10.50;78.05;100605.59;5051062;28;19929;-63
2021/05/01 03:33:52;;;;;;;;;;;11.00;99.90;;;10.48;78.14;100605.91;5055707;28;20363;-63
2021/05/01 03:36:19;;;;;;;;;;;11.00;99.90;;;10.45;78.18;100609.19;5055843;28;19964;-63
2021/05/01 03:38:47;;;;;;;;;;;11.00;99.90;;;10.39;78.29;100602.25;5055962;28;20020;-63
2021/05/01 03:41:15;;;;;;;;;;;10.90;99.90;;;10.28;78.69;100604.28;5055041;28;19956;-63
2021/05/01 03:43:42;;;;;;;;;;;10.90;99.90;;;10.18;78.98;100611.75;5055675;28;19925;-63
2021/05/01 03:46:09;;;;;;;;;;;10.70;99.90;;;10.10;79.15;100613.16;5055752;28;20015;-63
2021/05/01 03:48:36;;;;;;;;;;;10.60;99.90;;;10.01;79.50;100612.22;5055728;28;19925;-63
2021/05/01 03:51:05;;;;;;;;;;;10.50;99.90;;;9.95;80.77;100618.78;5054899;28;19967;-63
2021/05/01 03:53:32;;;;;;;;;;;10.50;99.90;;;10.01;80.66;100614.09;5055454;28;19929;-63
2021/05/01 03:55:59;;;;;;;;;;;10.50;99.90;;;10.03;81.06;100620.03;5055442;28;20383;-63
2021/05/01 03:58:27;;;;;;;;;;;10.60;99.90;;;10.06;81.26;100609.44;5055327;28;19972;-62
2021/05/01 04:00:54;;;;;;;;;;;10.60;99.90;;;10.17;81.27;100612.84;5054860;28;20353;-63
2021/05/01 04:03:21;;;;;;;;;;;10.70;99.90;;;10.24;80.99;100616.00;5055437;28;19932;-63
2021/05/01 04:05:49;;;;;;;;;;;10.70;99.90;;;10.31;80.64;100622.63;5055453;28;19979;-63
2021/05/01 04:08:16;;;;;;;;;;;10.80;99.90;;;10.35;80.74;100620.16;5055236;28;19929;-63
2021/05/01 04:10:43;;;;;;;;;;;10.90;99.90;;;10.35;81.28;100612.03;5054850;28;19931;-63
2021/05/01 04:13:10;;;;;;;;;;;10.90;99.90;;;10.38;81.53;100616.88;5054721;28;19925;-63
2021/05/01 04:15:38;;;;;;;;;;;10.90;99.90;;;10.49;81.50;100607.50;5055363;28;20379;-63
2021/05/01 04:18:05;;;;;;;;;;;11.00;99.90;;;10.57;80.69;100606.03;5055132;28;20027;-63
2021/05/01 04:20:32;;;;;;;;;;;11.10;99.90;;;10.66;80.30;100610.47;5054658;28;20078;-63
2021/05/01 04:23:00;;;;;;;;;;;11.20;99.90;;;10.68;80.76;100610.97;5054237;28;20356;-63
2021/05/01 04:25:27;;;;;;;;;;;11.20;99.90;;;10.72;80.74;100606.59;5055270;28;20356;-63
2021/05/01 04:27:54;;;;;;;;;;;11.30;99.90;;;10.84;80.00;100612.34;5054968;28;20019;-63
2021/05/01 04:30:21;;;;;;;;;;;11.40;99.90;;;10.92;79.70;100608.94;5054936;28;19925;-63
2021/05/01 04:32:50;;;;;;;;;;;11.40;99.90;;;11.03;79.73;100619.59;5053833;28;19928;-63
2021/05/01 04:35:17;;;;;;;;;;;11.50;99.90;;;11.14;79.20;100623.72;5054861;28;19924;-63
2021/05/01 04:37:45;;;;;;;;;;;11.60;99.90;;;11.23;79.11;100616.53;5054694;28;20028;-63
2021/05/01 04:40:13;;;;;;;;;;;11.70;99.90;;;11.30;79.73;100617.75;5054670;28;19929;-63
2021/05/01 04:42:46;;;;;;;;;;;11.80;99.90;;;11.29;79.89;100620.75;5053845;28;20021;-63
2021/05/01 04:45:14;;;;;;;;;;;11.80;99.90;;;11.30;80.74;100625.06;5053830;28;19928;-63
2021/05/01 04:47:41;;;;;;;;;;;11.80;99.90;;;11.29;81.00;100620.75;5054651;28;20011;-63
2021/05/01 04:50:10;;;;;;;;;;;11.80;99.90;;;11.27;80.74;100628.38;5054621;28;20078;-63
2021/05/01 04:52:38;;;;;;;;;;;11.80;99.90;;;11.26;80.65;100632.16;5053839;28;20287;-63
2021/05/01 04:55:12;;;;;;;;;;;11.80;99.90;;;11.25;80.81;100641.38;5054491;28;19945;-63
2021/05/01 04:57:41;;;;;;;;;;;11.80;99.90;;;11.26;80.66;100640.28;5054394;28;19979;-63
2021/05/01 05:00:10;;;;;;;;;;;11.80;99.90;;;11.26;79.82;100638.38;5054315;28;19932;-63
2021/05/01 05:02:38;;;;;;;;;;;11.80;99.90;;;11.30;80.48;100644.81;5053669;28;19964;-63
2021/05/01 05:05:07;;;;;;;;;;;11.80;99.90;;;11.31;81.35;100649.13;5054362;28;20023;-63
2021/05/01 05:07:35;;;;;;;;;;;11.90;99.90;;;11.32;81.97;100639.09;5054400;28;19968;-63
2021/05/01 05:10:04;;;;;;;;;;;11.90;99.90;;;11.29;82.08;100655.94;5054302;28;19924;-63
2021/05/01 05:12:31;;;;;;;;;;;11.80;99.90;;;11.30;82.91;100649.44;5053019;28;20334;-63
2021/05/01 05:14:58;;;;;;;;;;;11.90;99.90;;;11.29;83.07;100656.75;5054150;28;20029;-63
2021/05/01 05:17:26;;;;;;;;;;;11.90;99.90;;;11.32;83.07;100655.34;5054189;28;19931;-63
2021/05/01 05:19:53;;;;;;;;;;;11.90;99.90;;;11.29;83.55;100664.88;5053986;28;19932;-63
2021/05/01 05:22:20;;;;;;;;;;;11.90;99.90;;;11.34;83.69;100663.94;5053083;28;19928;-63
2021/05/01 05:24:48;;;;;;;;;;;11.90;99.90;;;11.38;84.76;100665.78;5053885;28;19960;-63
2021/05/01 05:27:15;;;;;;;;;;;11.90;99.90;;;11.37;83.75;100666.88;5053789;28;19924;-63
2021/05/01 05:29:49;;;;;;;;;;;12.00;99.90;;;11.40;84.26;100677.09;5053645;28;19931;-63
2021/05/01 05:32:17;;;;;;;;;;;12.00;99.90;;;11.48;83.97;100683.75;5052904;28;20394;-63
2021/05/01 05:34:45;;;;;;;;;;;12.00;99.90;;;11.51;87.36;100693.97;5053744;28;19936;-63
2021/05/01 05:37:12;;;;;;;;;;;12.10;99.90;;;11.58;90.67;100694.38;5053802;28;20361;-63
2021/05/01 05:39:40;;;;;;;;;;;12.20;99.90;;;11.65;91.96;100694.78;5053655;28;20012;-63
2021/05/01 05:42:10;;;;;;;;;;;12.30;99.90;;;11.65;92.28;100702.13;5052908;28;19928;-63
2021/05/01 05:44:38;;;;;;;;;;;12.30;99.90;;;11.59;92.46;100709.53;5053475;28;19924;-63
2021/05/01 05:47:06;;;;;;;;;;;12.20;99.90;;;11.57;93.03;100703.63;5053572;28;20336;-63
2021/05/01 05:49:33;;;;;;;;;;;12.10;99.90;;;11.60;93.17;100713.84;5053592;28;19928;-63
2021/05/01 05:52:00;;;;;;;;;;;12.10;99.90;;;11.58;93.31;100710.63;5052512;28;20401;-63
2021/05/01 05:54:27;;;;;;;;;;;12.10;99.90;;;11.48;91.74;100718.94;5053363;28;19925;-63
2021/05/01 05:56:54;;;;;;;;;;;12.00;99.90;;;11.53;93.83;100708.03;5053211;28;19925;-63
2021/05/01 05:59:23;;;;;;;;;;;12.10;99.90;;;11.56;93.30;100717.44;5053088;28;19952;-63
2021/05/01 06:01:51;;;;;;;;;;;12.10;99.90;;;11.52;91.54;100719.94;5052490;28;20253;-63
2021/05/01 06:04:22;;;;;;;;;;;12.00;99.90;;;11.46;89.63;100713.81;5053152;28;20035;-63
2021/05/01 06:06:55;;;;;;;;;;;12.00;99.90;;;11.41;88.09;100716.63;5053090;28;19968;-63
2021/05/01 06:09:22;;;;;;;;;;;11.90;99.90;;;11.48;87.68;100721.66;5052996;28;19964;-64
2021/05/01 06:11:50;;;;;;;;;;;11.90;99.90;;;11.63;88.51;100723.28;5052016;28;19972;-63
2021/05/01 06:14:18;;;;;;;;;;;12.00;99.90;;;11.65;88.73;100727.28;5053047;28;20327;-63
2021/05/01 06:16:46;;;;;;;;;;;12.10;99.90;;;11.68;90.09;100726.69;5053086;28;20376;-63
2021/05/01 06:19:13;;;;;;;;;;;12.20;99.90;;;11.73;90.40;100729.38;5052627;28;19924;-63
2021/05/01 06:21:40;;;;;;;;;;;12.30;99.90;;;11.77;89.84;100724.94;5051941;28;19929;-62
2021/05/01 06:24:09;;;;;;;;;;;12.30;99.90;;;11.84;90.45;100722.63;5052820;28;19972;-63
2021/05/01 06:26:38;;;;;;;;;;;12.40;99.90;;;11.86;91.53;100723.13;5052949;28;19925;-63
2021/05/01 06:29:06;;;;;;;;;;;12.40;99.90;;;11.89;91.64;100725.25;5052430;28;20346;-63
2021/05/01 06:31:36;;;;;;;;;;;12.40;99.90;;;11.93;92.33;100718.13;5051549;28;19924;-63
2021/05/01 06:34:06;;;;;;;;;;;12.50;99.90;;;12.02;92.33;100720.94;5052565;28;19925;-63
2021/05/01 06:36:34;;;;;;;;;;;12.50;99.90;;;12.05;91.68;100718.44;5052863;28;19972;-63
2021/05/01 06:39:04;;;;;;;;;;;12.60;99.90;;;12.13;91.17;100718.84;5052759;28;19929;-63
2021/05/01 06:41:40;;;;;;;;;;;12.60;99.90;;;12.21;90.50;100726.25;5051451;28;19928;-63
2021/05/01 06:44:10;;;;;;;;;;;12.70;99.90;;;12.20;89.18;100722.72;5052477;28;19932;-63
2021/05/01 06:46:40;;;;;;;;;;;12.70;99.90;;;12.23;88.88;100735.69;5052659;28;19975;-63
2021/05/01 06:49:13;;;;;;;;;;;12.70;99.90;;;12.32;88.35;100736.56;5052605;28;19972;-63
2021/05/01 06:51:41;;;;;;;;;;;12.80;99.90;;;12.39;87.52;100736.97;5033868;28;19960;-63
2021/05/01 06:54:09;;;;;;;;;;;12.80;99.90;;;12.45;86.99;100751.22;5052067;28;19925;-63
2021/05/01 06:56:41;;;;;;;;;;;12.80;99.90;;;12.49;87.37;100742.16;5052487;28;19968;-63
2021/05/01 06:59:09;;;;;;;;;;;13.20;99.90;;;12.94;87.56;100740.38;5052257;28;19964;-63
2021/05/01 07:01:40;;;;;;;;;;;14.80;99.90;;;14.27;81.15;100738.53;5051308;28;20027;-63
2021/05/01 07:04:09;;;;;;;;;;;15.30;99.90;;;15.51;73.37;100745.84;5052135;28;20011;-63
2021/05/01 07:06:38;;;;;;;;;;;17.00;99.90;;;16.45;70.81;100743.81;5053255;28;20365;-63
2021/05/01 07:09:06;;;;;;;;;;;;;;;17.05;65.51;100740.72;5058894;28;20023;-63
2021/05/01 07:11:35;;;;;;;;;;;17.70;99.90;;;17.25;64.05;100740.69;5057539;28;20015;-63
2021/05/01 07:14:03;;;;;;;;;;;17.90;99.90;;;17.23;61.91;100742.16;5058399;28;19932;-63
2021/05/01 07:16:30;;;;;;;;;;;17.90;99.90;;;17.42;59.47;100740.50;5058855;28;20465;-64
2021/05/01 07:18:57;;;;;;;;;;;17.80;99.90;;;17.63;59.66;100745.16;5058969;28;19956;-63
2021/05/01 07:21:25;;;;;;;;;;;17.90;99.90;;;17.48;54.80;100747.34;5057667;28;19964;-63
2021/05/01 07:23:52;;;;;;;;;;;17.90;99.90;;;17.71;56.04;100750.53;5058035;28;20252;-63
2021/05/01 07:26:20;;;;;;;;;;;18.00;99.90;;;17.71;54.82;100753.25;5058893;28;19952;-63
2021/05/01 07:28:50;;;;;;;;;;;17.90;99.90;;;17.58;55.24;100750.81;5058882;28;20363;-63
2021/05/01 07:31:20;;;;;;;;;;;17.90;99.90;;;17.67;55.83;100755.06;5057688;28;20299;-63
2021/05/01 07:33:48;;;;;;;;;;;17.90;99.90;;;17.73;58.00;100761.91;5057987;28;19925;-63
2021/05/01 07:36:21;;;;;;;;;;;17.80;99.90;;;17.83;54.88;100766.16;5058758;28;19925;-63
2021/05/01 07:38:52;;;;;;;;;;;18.00;99.90;;;17.84;52.64;100767.75;5058739;28;20364;-63
2021/05/01 07:41:22;;;;;;;;;;;18.10;99.90;;;17.90;54.04;100758.97;5057588;28;20088;-63
2021/05/01 07:43:50;;;;;;;;;;;18.10;99.90;;;17.93;52.38;100752.81;5057937;28;19970;-64
2021/05/01 07:46:21;;;;;;;;;;;18.20;99.90;;;18.29;52.92;100762.19;5058504;28;20020;-63
2021/05/01 07:48:49;;;;;;;;;;;18.50;99.90;;;18.70;53.62;100756.47;5058570;28;20022;-64
2021/05/01 07:51:16;;;;;;;;;;;18.70;99.90;;;18.96;52.19;100759.63;5057524;28;19929;-63
2021/05/01 07:53:44;;;;;;;;;;;19.00;99.90;;;18.86;50.21;100759.28;5057761;28;19925;-63
2021/05/01 07:56:12;;;;;;;;;;;19.10;99.90;;;18.80;50.78;100761.47;5058515;28;19967;-63
2021/05/01 07:58:39;;;;;;;;;;;19.10;99.90;;;18.67;52.62;100757.16;5058517;28;20015;-63
2021/05/01 08:01:06;;;;;;;;;;;19.00;99.90;;;18.16;52.38;100766.88;5057676;28;19924;-63
2021/05/01 08:03:34;;;;;;;;;;;18.60;99.90;;;18.05;54.57;100773.13;5057752;28;20035;-63
2021/05/01 08:06:02;;;;;;;;;;;18.50;99.90;;;17.92;51.53;100758.66;5058437;28;19971;-63
2021/05/01 08:08:29;;;;;;;;;;;18.40;99.90;;;17.81;52.56;100761.00;5058354;28;19975;-63
2021/05/01 08:10:56;;;;;;;;;;;18.30;99.90;;;17.74;52.61;100765.44;5057574;28;20047;-63
2021/05/01 08:13:24;;;;;;;;;;;18.20;99.90;;;17.67;53.99;100765.19;5057412;28;19932;-63
2021/05/01 08:15:51;;;;;;;;;;;18.00;99.90;;;17.73;53.50;100769.31;5058271;28;19980;-63
2021/05/01 08:18:18;;;;;;;;;;;18.20;99.90;;;17.76;53.10;100769.44;5056630;28;19931;-63
2021/05/01 08:20:45;;;;;;;;;;;18.20;99.90;;;17.93;52.66;100773.94;5054329;28;19951;-63
2021/05/01 08:23:12;;;;;;;;;;;18.40;99.90;;;17.91;53.25;100776.19;5054169;28;19924;-63
2021/05/01 08:25:39;;;;;;;;;;;18.40;99.90;;;17.81;53.82;100776.66;5055213;28;20394;-63
2021/05/01 08:28:07;;;;;;;;;;;18.20;99.90;;;17.46;55.88;100778.91;5055024;28;19968;-63
2021/05/01 08:30:35;;;;;;;;;;;17.70;99.90;;;17.10;55.13;100790.47;5054818;28;20040;-63
2021/05/01 08:33:03;;;;;;;;;;;17.40;99.90;;;16.52;55.43;100799.50;5053516;28;19928;-63
2021/05/01 08:35:30;;;;;;;;;;;17.20;99.90;;;15.88;58.71;100801.53;5054781;28;20015;-63
2021/05/01 08:37:57;;;;;;;;;;;16.60;99.90;;;15.35;61.67;100809.31;5054955;28;19964;-63
2021/05/01 08:40:24;;;;;;;;;;;16.00;99.90;;;14.95;63.62;100806.75;5054794;28;19929;-63
2021/05/01 08:42:52;;;;;;;;;;;15.60;99.90;;;14.73;66.73;100815.84;5053310;28;20347;-63
2021/05/01 08:45:23;;;;;;;;;;;15.30;99.90;;;14.68;68.54;100812.47;5054674;28;19975;-63
2021/05/01 08:47:51;;;;;;;;;;;15.20;99.90;;;14.74;68.46;100816.66;5054565;28;19939;-63
2021/05/01 08:50:39;;;;;;;;;;;15.20;99.90;;;15.11;68.66;100815.22;5054540;28;19932;-63
2021/05/01 08:53:08;;;;;;;;;;;15.50;99.90;;;15.62;65.01;100809.00;5053438;28;19968;-63
2021/05/01 08:55:38;;;;;;;;;;;15.90;99.90;;;15.84;62.89;100803.31;5054353;28;20019;-63
2021/05/01 08:58:08;;;;;;;;;;;16.20;99.90;;;16.89;61.76;100800.59;5054356;28;19943;-63
2021/05/01 09:00:37;;;;;;;;;;;17.40;99.90;;;17.53;57.63;100794.75;5054191;28;20342;-63
2021/05/01 09:03:07;;;;;;;;;;;17.80;99.90;;;17.86;57.43;100795.56;5053027;28;19929;-63
2021/05/01 09:05:37;;;;;;;;;;;18.20;99.90;;;18.13;55.06;100797.66;5054143;28;19963;-63
2021/05/01 09:08:06;;;;;;;;;;;18.60;99.90;;;17.62;57.28;100807.25;5054192;28;20327;-63
2021/05/01 09:10:41;;;;;;;;;;;18.20;99.90;;;17.10;57.28;100809.59;5053926;28;19964;-63
2021/05/01 09:13:16;;;;;;;;;;;17.90;99.90;;;16.67;54.56;100814.53;5053078;28;19924;-63
2021/05/01 09:15:55;;;;;;;;;;;17.40;99.90;;;16.24;51.76;100815.53;5054240;28;19924;-63
2021/05/01 09:18:24;;;;;;;;;;;16.90;99.90;;;16.41;53.36;100817.41;5054033;28;20284;-63
2021/05/01 09:20:51;;;;;;;;;;;16.80;99.90;;;16.68;53.49;100816.97;5053439;28;19983;-63
2021/05/01 09:23:18;;;;;;;;;;;17.00;99.90;;;17.12;51.04;100812.78;5053384;28;20356;-63
2021/05/01 09:25:54;;;;;;;;;;;17.40;99.90;;;17.32;49.20;100812.00;5054022;28;20390;-63
2021/05/01 09:28:22;;;;;;;;;;;17.60;99.90;;;17.81;48.78;100807.50;5054141;28;20002;-63
2021/05/01 09:31:01;;;;;;;;;;;18.10;99.90;;;17.73;48.67;100807.59;5052695;28;19982;-63
2021/05/01 09:33:30;;;;;;;;;;;18.10;99.90;;;17.39;48.89;100812.25;5052986;28;20348;-63
2021/05/01 09:36:00;;;;;;;;;;;18.00;99.90;;;17.68;51.57;100811.38;5053773;28;19924;-63
2021/05/01 09:38:31;;;;;;;;;;;18.00;99.90;;;18.16;48.99;100813.41;5053720;28;20023;-63
2021/05/01 09:40:58;;;;;;;;;;;18.50;99.90;;;18.64;48.66;100812.63;5052926;28;19929;-63
2021/05/01 09:43:25;;;;;;;;;;;18.90;99.90;;;18.28;47.79;100824.34;5052698;28;20058;-63
2021/05/01 09:45:52;;;;;;;;;;;18.70;99.90;;;17.96;48.44;100825.22;5053439;28;20007;-63
2021/05/01 09:48:20;;;;;;;;;;;18.50;99.90;;;17.89;47.93;100820.31;5053428;28;19925;-63
2021/05/01 09:51:03;;;;;;;;;;;18.40;99.90;;;18.08;48.59;100822.53;5052936;28;19978;-63
2021/05/01 09:53:30;;;;;;;;;;;18.60;99.90;;;17.95;47.71;100820.88;5052813;28;19925;-63
2021/05/01 09:55:58;;;;;;;;;;;18.50;99.90;;;18.01;48.05;100825.81;5053306;28;20346;-63
2021/05/01 09:58:27;;;;;;;;;;;18.60;99.90;;;18.20;50.42;100822.53;5053401;28;19925;-63
2021/05/01 10:01:12;;;;;;;;;;;18.70;99.90;;;18.34;48.48;100823.00;5052499;28;19983;-63
2021/05/01 10:03:39;;;;;;;;;;;18.90;99.90;;;18.19;46.04;100833.81;5052773;28;19925;-63
2021/05/01 10:06:09;;;;;;;;;;;18.80;99.90;;;18.15;48.46;100832.91;5053334;28;19929;-63
2021/05/01 10:08:36;;;;;;;;;;;18.70;99.90;;;18.25;46.77;100833.25;5052997;28;20376;-63
2021/05/01 10:11:11;;;;;;;;;;;18.70;99.90;;;18.36;47.98;100828.91;5052218;28;20395;-63
2021/05/01 10:13:47;;;;;;;;;;;18.90;99.90;;;18.29;46.46;100827.91;5052431;28;20023;-63
2021/05/01 10:16:15;;;;;;;;;;;18.90;99.90;;;18.45;47.49;100839.78;5053129;28;19971;-63
2021/05/01 10:19:04;;;;;;;;;;;19.00;99.90;;;18.42;46.90;100835.00;5053009;28;20363;-63
2021/05/01 10:21:32;;;;;;;;;;;19.00;99.90;;;18.33;47.75;100832.34;5052055;28;20040;-63
2021/05/01 10:23:59;;;;;;;;;;;19.00;99.90;;;18.39;46.38;100832.94;5052290;28;19931;-63
2021/05/01 10:26:27;;;;;;;;;;;19.00;99.90;;;18.35;45.28;100834.75;5052868;28;19925;-63
2021/05/01 10:28:59;;;;;;;;;;;19.00;99.90;;;18.27;47.51;100841.13;5052810;28;20360;-63
2021/05/01 10:31:26;;;;;;;;;;;18.80;99.90;;;18.34;46.42;100842.16;5051954;28;20049;-63
2021/05/01 10:33:55;;;;;;;;;;;18.90;99.90;;;18.38;46.55;100837.59;5051971;28;20363;-63
2021/05/01 10:36:26;;;;;;;;;;;19.00;99.90;;;18.36;47.29;100836.34;5052863;28;20367;-63
2021/05/01 10:39:01;;;;;;;;;;;18.90;99.90;;;18.44;46.98;100835.44;5052782;28;19924;-63
2021/05/01 10:41:31;;;;;;;;;;;19.10;99.90;;;18.49;48.17;100836.03;5051023;28;19967;-63
2021/05/01 10:43:59;;;;;;;;;;;19.10;99.90;;;18.64;45.84;100840.03;5051739;28;19932;-63
2021/05/01 10:46:29;;;;;;;;;;;19.20;99.90;;;18.52;45.83;100842.75;5052645;28;19980;-63
2021/05/01 10:48:59;;;;;;;;;;;19.10;99.90;;;18.41;46.06;100847.88;5052439;28;19924;-63
2021/05/01 10:51:28;;;;;;;;;;;19.00;99.90;;;18.30;47.72;100857.66;5051551;28;20325;-63
2021/05/01 10:54:11;;;;;;;;;;;18.90;99.90;;;18.40;47.11;100846.25;5051528;28;19925;-63
2021/05/01 10:56:43;;;;;;;;;;;19.00;99.90;;;18.34;46.59;100858.59;5052407;28;19960;-64
2021/05/01 10:59:13;;;;;;;;;;;18.90;99.90;;;18.25;46.96;100851.59;5052707;28;19988;-63
2021/05/01 11:01:46;;;;;;;;;;;18.80;99.90;;;18.54;48.75;100851.44;5051387;28;20410;-63
2021/05/01 11:04:18;;;;;;;;;;;19.00;99.90;;;18.93;46.58;100855.41;5051793;28;19932;-63
2021/05/01 11:06:47;;;;;;;;;;;19.40;99.90;;;18.78;46.59;100845.97;5052384;28;19925;-63
2021/05/01 11:09:24;;;;;;;;;;;19.40;99.90;;;18.23;47.00;100851.97;5052181;28;20067;-63
2021/05/01 11:12:01;;;;;;;;;;;18.90;99.90;;;18.49;49.22;100846.19;5051270;28;19937;-63
2021/05/01 11:14:29;;;;;;;;;;;18.90;99.90;;;18.92;46.56;100848.31;5052305;28;19979;-63
2021/05/01 11:17:08;;;;;;;;;;;19.40;99.90;;;18.90;46.27;100847.88;5052119;28;19968;-63